Time;durP1;ratioP1;P1;durP2;ratioP2;P2;SDS_P1;SDS_P2;PMS_P1;PMS_P2;Temp;Humidity;BMP_temperature;BMP_pressure;BME280_temperature;BME280_humidity;BME280_pressure;Samples;Min_cycle;Max_cycle;Signal;HPM_P1;HPM_P2
2022/10/21 00:02:43;;;;;;;18.40;10.40;;;;;;;2.60;76.91;100453.98;214196;1282;139836;-70
2022/10/21 00:07:47;;;;;;;19.40;10.10;;;;;;;2.60;76.78;100454.90;214197;1282;140686;-66
2022/10/21 00:12:51;;;;;;;21.90;10.10;;;;;;;2.61;76.98;100451.40;214457;1282;150081;-71
2022/10/21 00:17:54;;;;;;;24.70;12.30;;;;;;;2.58;76.73;100445.45;214354;1282;139341;-71
2022/10/21 00:22:58;;;;;;;23.00;13.10;;;;;;;2.53;76.61;100434.04;214179;1282;140723;-70
2022/10/21 00:28:04;;;;;;;17.20;9.50;;;;;;;2.46;76.45;100420.72;214344;1282;142324;-70
2022/10/21 00:33:10;;;;;;;18.80;11.10;;;;;;;2.42;77.04;100414.68;214283;1282;139733;-71
2022/10/21 00:38:15;;;;;;;17.50;10.50;;;;;;;2.43;76.75;100407.90;214406;1282;140893;-69
2022/10/21 00:43:20;;;;;;;18.50;9.90;;;;;;;2.40;77.06;100400.91;214629;1282;141637;-69
2022/10/21 00:48:39;;;;;;;16.80;10.10;;;;;;;2.40;77.14;100395.14;214504;1282;140350;-69
2022/10/21 00:53:48;;;;;;;21.40;12.20;;;;;;;2.39;77.34;100387.84;214427;1282;141237;-68
2022/10/21 00:58:56;;;;;;;19.80;11.70;;;;;;;2.36;77.18;100373.02;214121;1282;142484;-67
2022/10/21 01:04:02;;;;;;;20.30;12.10;;;;;;;2.35;76.90;100382.05;214343;1282;142239;-70
2022/10/21 01:09:06;;;;;;;16.00;11.20;;;;;;;2.32;77.33;100383.30;213987;1282;141332;-68
2022/10/21 01:14:29;;;;;;;20.80;10.80;;;;;;;2.34;77.41;100382.71;214346;1282;141066;-69
2022/10/21 01:20:08;;;;;;;19.80;11.00;;;;;;;2.33;77.39;100380.58;214397;1283;140233;-67
2022/10/21 01:25:27;;;;;;;20.80;12.60;;;;;;;2.29;77.54;100374.45;214364;1283;141572;-69
2022/10/21 01:30:36;;;;;;;13.60;9.40;;;;;;;2.26;77.28;100369.16;214530;1283;140506;-69
2022/10/21 01:36:14;;;;;;;17.20;9.30;;;;;;;2.25;77.32;100361.08;214223;1283;140187;-70
2022/10/21 01:41:19;;;;;;;20.50;11.70;;;;;;;2.24;77.60;100357.33;214034;1284;141112;-67
2022/10/21 01:46:40;;;;;;;16.30;10.80;;;;;;;2.25;77.38;100349.14;213859;1282;140977;-68
2022/10/21 01:51:48;;;;;;;20.20;11.10;;;;;;;2.23;77.67;100334.51;214472;1282;140456;-71
2022/10/21 01:56:56;;;;;;;22.60;11.80;;;;;;;2.19;77.44;100318.06;213436;1283;139505;-68
2022/10/21 02:02:03;;;;;;;24.70;11.40;;;;;;;2.14;77.76;100306.90;213890;1282;139696;-68
2022/10/21 02:07:08;;;;;;;;;;;;;;;2.14;77.65;100311.97;214064;1283;141700;-67
2022/10/21 02:12:14;;;;;;;19.70;11.10;;;;;;;2.10;77.90;100312.21;215029;1283;127278;-68
2022/10/21 02:17:21;;;;;;;14.00;8.80;;;;;;;2.15;78.12;100306.93;214401;1283;140424;-65
2022/10/21 02:22:27;;;;;;;19.10;10.10;;;;;;;2.13;77.70;100296.66;214448;1282;139893;-68
2022/10/21 02:27:31;;;;;;;14.80;9.10;;;;;;;2.10;77.87;100300.48;214570;1282;140007;-69
2022/10/21 02:32:53;;;;;;;16.60;10.60;;;;;;;2.11;77.89;100291.83;214273;1282;141537;-69
2022/10/21 02:38:13;;;;;;;16.70;10.10;;;;;;;2.05;77.69;100279.96;214230;1282;140336;-72
2022/10/21 02:43:24;;;;;;;13.50;9.30;;;;;;;2.00;78.05;100288.25;214519;1282;140883;-71
2022/10/21 02:48:32;;;;;;;14.90;9.70;;;;;;;1.99;77.98;100279.11;214403;1282;142920;-73
2022/10/21 02:53:36;;;;;;;;;;;;;;;1.97;78.00;100276.77;214503;1282;141678;-72
2022/10/21 02:58:40;;;;;;;16.80;9.20;;;;;;;1.94;78.14;100272.80;215219;1282;128297;-70
2022/10/21 03:03:44;;;;;;;18.00;8.70;;;;;;;1.92;78.44;100272.96;214362;1282;140532;-69
2022/10/21 03:08:48;;;;;;;17.40;9.70;;;;;;;1.91;78.20;100262.09;214372;1282;140737;-70
2022/10/21 03:13:52;;;;;;;19.50;9.90;;;;;;;1.89;78.32;100254.59;213953;1280;139838;-70
2022/10/21 03:19:00;;;;;;;19.20;10.30;;;;;;;1.88;78.39;100245.59;214337;1282;139975;-71
2022/10/21 03:24:05;;;;;;;15.20;8.10;;;;;;;1.84;78.54;100245.97;213760;1282;141796;-70
2022/10/21 03:29:22;;;;;;;17.10;9.30;;;;;;;1.81;78.62;100240.04;214194;1283;140471;-71
2022/10/21 03:34:26;;;;;;;17.40;9.30;;;;;;;1.81;78.25;100227.29;213793;1281;141349;-73
2022/10/21 03:39:30;;;;;;;14.50;11.00;;;;;;;1.81;78.55;100226.04;213957;1282;142072;-70
2022/10/21 03:44:35;;;;;;;16.90;10.30;;;;;;;1.80;78.81;100221.70;213132;1282;141226;-66
2022/10/21 03:49:40;;;;;;;14.30;9.20;;;;;;;1.82;78.98;100224.73;214248;1282;140377;-70
2022/10/21 03:54:44;;;;;;;13.80;8.90;;;;;;;1.82;78.62;100221.77;214482;1282;139735;-69
2022/10/21 03:59:48;;;;;;;14.90;9.20;;;;;;;1.84;79.08;100221.67;213135;1282;140044;-69
2022/10/21 04:04:52;;;;;;;15.00;10.00;;;;;;;1.86;79.06;100226.90;214316;1282;140310;-69
2022/10/21 04:09:58;;;;;;;19.50;10.20;;;;;;;1.87;78.98;100222.13;213857;1282;142446;-70
2022/10/21 04:15:04;;;;;;;17.90;9.20;;;;;;;1.89;79.09;100213.39;214355;1282;141048;-71
2022/10/21 04:20:10;;;;;;;16.80;10.30;;;;;;;1.90;79.13;100208.52;214294;1282;140168;-70
2022/10/21 04:25:14;;;;;;;18.20;11.40;;;;;;;1.90;78.94;100201.66;214481;1282;141163;-74
2022/10/21 04:30:19;;;;;;;17.20;8.30;;;;;;;1.87;79.01;100187.37;214264;1282;142628;-72
2022/10/21 04:35:22;;;;;;;16.80;11.00;;;;;;;1.88;79.17;100176.55;214189;1282;142476;-72
2022/10/21 04:40:26;;;;;;;19.60;9.60;;;;;;;1.92;79.11;100173.79;214061;1282;140620;-73
2022/10/21 04:45:30;;;;;;;16.80;10.80;;;;;;;1.90;78.73;100164.69;213837;1282;408844;-70
2022/10/21 04:50:35;;;;;;;16.40;11.20;;;;;;;1.88;78.77;100170.34;213972;1282;140741;-70
2022/10/21 04:55:39;;;;;;;16.20;9.20;;;;;;;1.91;79.22;100177.44;214082;1282;141097;-69
2022/10/21 05:00:42;;;;;;;14.80;10.40;;;;;;;1.91;78.93;100173.76;214360;1282;141365;-71
2022/10/21 05:05:50;;;;;;;18.70;9.70;;;;;;;1.89;78.93;100156.98;214513;1281;140439;-73
2022/10/21 05:11:00;;;;;;;12.90;8.20;;;;;;;1.83;79.20;100145.56;214397;1280;141723;-74
2022/10/21 05:16:04;;;;;;;18.70;11.50;;;;;;;1.80;79.01;100143.02;214232;1281;140392;-75
2022/10/21 05:21:08;;;;;;;19.40;11.70;;;;;;;1.80;79.19;100138.35;214018;1281;140813;-75
2022/10/21 05:26:12;;;;;;;16.20;11.10;;;;;;;1.83;79.37;100147.95;214313;1281;140841;-72
2022/10/21 05:31:16;;;;;;;14.50;9.50;;;;;;;1.88;79.37;100145.30;213817;1281;140094;-71
2022/10/21 05:36:21;;;;;;;17.00;8.90;;;;;;;1.96;79.40;100140.42;214196;1282;141568;-72
2022/10/21 05:41:27;;;;;;;19.50;12.50;;;;;;;2.05;79.84;100145.54;214216;1281;140526;-71
2022/10/21 05:46:31;;;;;;;19.00;10.40;;;;;;;2.10;79.58;100134.70;214543;1281;140606;-69
2022/10/21 05:51:40;;;;;;;15.40;10.40;;;;;;;2.21;79.64;100136.02;214431;1281;141062;-69
2022/10/21 05:56:44;;;;;;;16.70;11.50;;;;;;;2.36;79.50;100134.75;214292;1281;140708;-71
2022/10/21 06:01:49;;;;;;;27.10;11.90;;;;;;;2.49;79.65;100133.09;214363;1281;139766;-69
2022/10/21 06:06:53;;;;;;;19.00;11.30;;;;;;;2.63;79.79;100125.13;214548;1281;142454;-71
2022/10/21 06:11:58;;;;;;;14.80;10.90;;;;;;;2.74;79.88;100125.09;214606;1281;140765;-69
2022/10/21 06:17:03;;;;;;;17.20;10.90;;;;;;;2.85;79.45;100128.36;214503;1280;140534;-69
2022/10/21 06:22:07;;;;;;;18.30;12.90;;;;;;;2.96;79.48;100122.37;214222;1281;141326;-71
2022/10/21 06:27:12;;;;;;;16.40;9.90;;;;;;;3.13;79.81;100112.23;214530;1281;141603;-68
2022/10/21 06:32:17;;;;;;;19.60;10.00;;;;;;;3.30;79.78;100103.33;214238;1281;141225;-71
2022/10/21 06:37:22;;;;;;;15.40;10.80;;;;;;;3.43;79.54;100094.45;214655;1280;141147;-70
2022/10/21 06:42:26;;;;;;;21.60;13.70;;;;;;;3.56;79.56;100083.56;214711;1280;140143;-69
2022/10/21 06:47:31;;;;;;;16.10;9.90;;;;;;;3.74;79.54;100076.02;214836;1280;142314;-68
2022/10/21 06:52:35;;;;;;;20.40;10.50;;;;;;;3.92;79.39;100076.18;214511;1281;140482;-72
2022/10/21 06:57:39;;;;;;;19.40;10.20;;;;;;;4.06;79.20;100069.36;214724;1281;140958;-69
2022/10/21 07:02:43;;;;;;;23.60;13.80;;;;;;;4.20;79.09;100079.30;214576;1281;140518;-68
2022/10/21 07:07:49;;;;;;;15.30;10.30;;;;;;;4.39;78.89;100067.44;214612;1280;141184;-67
2022/10/21 07:12:52;;;;;;;21.80;12.70;;;;;;;4.78;78.71;100060.16;214471;1280;141074;-70
2022/10/21 07:17:59;;;;;;;17.80;10.70;;;;;;;5.02;78.43;100055.54;214649;1280;140091;-68
2022/10/21 07:23:04;;;;;;;14.50;10.40;;;;;;;5.39;78.35;100049.38;214384;1280;140988;-69
2022/10/21 07:28:07;;;;;;;22.70;13.00;;;;;;;6.01;78.26;100048.80;214313;1280;141816;-69
2022/10/21 07:33:11;;;;;;;19.90;12.50;;;;;;;6.06;76.88;100037.36;214495;1280;142845;-64
2022/10/21 07:38:15;;;;;;;22.80;12.00;;;;;;;5.92;76.53;100034.48;214747;1280;139727;-68
2022/10/21 07:43:25;;;;;;;31.60;14.20;;;;;;;5.84;76.38;100025.53;214404;1280;139796;-67
2022/10/21 07:48:29;;;;;;;22.50;12.80;;;;;;;5.91;76.61;100025.89;214526;1280;139779;-67
2022/10/21 07:53:33;;;;;;;15.10;10.30;;;;;;;6.13;76.63;100027.65;213802;1281;140335;-67
2022/10/21 07:58:38;;;;;;;16.70;9.80;;;;;;;6.39;76.67;100018.27;214195;1281;141350;-69
2022/10/21 08:03:43;;;;;;;16.70;9.50;;;;;;;6.63;76.73;100011.27;214141;1281;140570;-68
2022/10/21 08:08:47;;;;;;;17.40;11.80;;;;;;;6.83;76.73;99996.30;214729;1280;140613;-69
2022/10/21 08:13:52;;;;;;;15.50;10.30;;;;;;;7.02;76.33;99987.99;214475;1281;142200;-71
2022/10/21 08:18:59;;;;;;;17.70;11.50;;;;;;;7.21;75.57;99985.02;214520;1280;140125;-71
2022/10/21 08:24:05;;;;;;;16.80;11.10;;;;;;;7.49;75.69;99987.74;214204;1281;139672;-67
2022/10/21 08:29:09;;;;;;;20.40;10.90;;;;;;;7.85;75.90;99973.27;214704;1281;139385;-68
2022/10/21 08:34:13;;;;;;;14.20;10.20;;;;;;;8.33;75.64;99967.08;214589;1280;140578;-70
2022/10/21 08:39:17;;;;;;;10.40;8.10;;;;;;;8.90;75.66;99954.83;214614;1280;142171;-69
2022/10/21 08:44:26;;;;;;;12.80;8.90;;;;;;;9.65;75.43;99942.52;214478;1281;139376;-69
2022/10/21 08:49:44;;;;;;;15.50;9.00;;;;;;;10.09;74.05;99940.92;214691;1281;143135;-72
2022/10/21 08:54:58;;;;;;;12.20;9.00;;;;;;;10.23;73.05;99940.96;214691;1281;140579;-70
2022/10/21 09:00:44;;;;;;;11.60;8.70;;;;;;;10.32;72.49;99935.75;214828;1280;140050;-68
2022/10/21 09:05:57;;;;;;;11.10;8.10;;;;;;;10.36;71.61;99933.61;213742;1281;140381;-72
2022/10/21 09:11:11;;;;;;;14.40;8.60;;;;;;;10.43;71.59;99923.18;214455;1281;139733;-73
2022/10/21 09:16:22;;;;;;;10.70;7.90;;;;;;;10.50;71.24;99914.85;214482;1281;140229;-73
2022/10/21 09:21:35;;;;;;;12.80;8.10;;;;;;;10.47;71.00;99907.48;214610;1280;140358;-70
2022/10/21 09:26:43;;;;;;;10.10;7.40;;;;;;;10.51;70.90;99905.77;214482;1281;140054;-71
2022/10/21 09:31:48;;;;;;;11.50;6.80;;;;;;;10.69;70.94;99902.73;214510;1281;140743;-70
2022/10/21 09:37:01;;;;;;;12.40;7.80;;;;;;;10.89;70.43;99900.70;214736;1280;141356;-71
2022/10/21 09:42:11;;;;;;;11.30;6.50;;;;;;;11.04;70.27;99893.35;214552;1280;140312;-72
2022/10/21 09:47:36;;;;;;;11.30;7.00;;;;;;;11.25;69.63;99887.88;214702;1280;140870;-76
2022/10/21 09:52:51;;;;;;;10.80;7.40;;;;;;;11.27;69.30;99873.39;213716;1281;140730;-72
2022/10/21 09:57:59;;;;;;;12.60;7.70;;;;;;;11.28;68.72;99862.80;214563;1280;139807;-70
2022/10/21 10:03:07;;;;;;;13.90;8.10;;;;;;;11.27;68.41;99857.82;214658;1280;139699;-70
2022/10/21 10:08:43;;;;;;;9.70;7.20;;;;;;;11.39;68.69;99853.72;214679;1281;140652;-70
2022/10/21 10:13:50;;;;;;;14.90;9.10;;;;;;;11.57;68.26;99859.95;214820;1280;139611;-70
2022/10/21 10:19:15;;;;;;;10.00;7.00;;;;;;;11.59;68.17;99851.34;214766;1280;140012;-70
2022/10/21 10:24:21;;;;;;;9.80;7.10;;;;;;;11.69;68.28;99851.45;214228;1280;140011;-65
2022/10/21 10:29:32;;;;;;;12.10;7.60;;;;;;;11.70;67.86;99842.89;214796;1280;139606;-72
2022/10/21 10:34:50;;;;;;;9.80;6.90;;;;;;;11.70;67.72;99842.08;214814;1280;140840;-70
2022/10/21 10:39:57;;;;;;;14.40;7.10;;;;;;;11.71;67.64;99846.58;214975;1280;140309;-71
2022/10/21 10:45:14;;;;;;;9.60;6.50;;;;;;;11.72;67.44;99842.54;214186;1280;141083;-70
2022/10/21 10:50:40;;;;;;;11.00;6.80;;;;;;;11.69;67.16;99840.52;214257;1281;140331;-71
2022/10/21 10:55:50;;;;;;;6.50;5.30;;;;;;;11.74;67.33;99841.58;214612;1280;140556;-71
2022/10/21 11:00:59;;;;;;;10.20;6.90;;;;;;;11.83;66.99;99832.58;214624;1281;140894;-71
2022/10/21 11:06:15;;;;;;;13.00;6.70;;;;;;;11.95;66.94;99823.84;214742;1281;140331;-71
2022/10/21 11:11:41;;;;;;;9.10;6.30;;;;;;;12.03;66.63;99818.91;214886;1281;141145;-72
2022/10/21 11:16:59;;;;;;;8.00;5.90;;;;;;;12.15;66.43;99808.48;214554;1280;140617;-72
2022/10/21 11:22:19;;;;;;;14.80;6.20;;;;;;;12.19;65.86;99789.46;214553;1280;140311;-72
2022/10/21 11:27:39;;;;;;;7.40;5.30;;;;;;;12.02;65.27;99776.80;214774;1281;140894;-71
2022/10/21 11:32:49;;;;;;;10.20;5.50;;;;;;;11.85;65.47;99764.19;214515;1280;139930;-72
2022/10/21 11:38:32;;;;;;;7.30;6.30;;;;;;;11.74;65.08;99756.23;214669;1281;140596;-71
2022/10/21 11:43:55;;;;;;;6.00;4.40;;;;;;;11.67;64.94;99757.86;214583;1281;139273;-71
2022/10/21 11:49:25;;;;;;;9.20;6.20;;;;;;;11.67;64.99;99777.92;214612;1281;140487;-69
2022/10/21 11:54:50;;;;;;;8.10;5.70;;;;;;;11.67;65.15;99778.14;215526;1278;139777;-72
2022/10/21 12:00:16;;;;;;;6.40;5.80;;;;;;;11.69;65.07;99784.48;215256;1277;139311;-71
2022/10/21 12:05:29;;;;;;;8.60;6.10;;;;;;;11.73;65.11;99774.91;215467;1277;139857;-71
2022/10/21 12:10:56;;;;;;;11.30;5.80;;;;;;;11.80;65.01;99759.50;215344;1277;140556;-72
2022/10/21 12:16:15;;;;;;;9.20;7.00;;;;;;;11.81;64.95;99745.15;214167;1279;140547;-72
2022/10/21 12:21:29;;;;;;;11.70;6.50;;;;;;;11.87;64.79;99746.74;215499;1277;140000;-74
2022/10/21 12:26:44;;;;;;;9.30;6.60;;;;;;;11.96;64.61;99738.38;215180;1278;139989;-73
2022/10/21 12:32:19;;;;;;;8.80;6.10;;;;;;;11.98;64.45;99734.08;212384;1278;141310;-71
2022/10/21 12:37:51;;;;;;;15.70;7.60;;;;;;;12.07;64.36;99724.93;214751;1279;139758;-72
2022/10/21 12:43:04;;;;;;;7.80;5.90;;;;;;;12.35;64.68;99710.25;214445;1278;139628;-71
2022/10/21 12:48:33;;;;;;;11.60;6.70;;;;;;;12.65;64.38;99717.44;215206;1278;140466;-72
2022/10/21 12:53:55;;;;;;;10.70;6.30;;;;;;;12.73;63.79;99709.30;215321;1278;139607;-72
2022/10/21 12:59:03;;;;;;;8.20;6.30;;;;;;;12.62;63.23;99698.73;215213;1277;140312;-72
2022/10/21 13:04:32;;;;;;;9.50;6.50;;;;;;;12.65;63.12;99700.21;215317;1277;140122;-72
2022/10/21 13:09:51;;;;;;;7.90;6.30;;;;;;;12.72;62.98;99696.73;215414;1277;142047;-72
2022/10/21 13:15:05;;;;;;;8.70;6.60;;;;;;;12.80;62.99;99695.44;215202;1278;140195;-71
2022/10/21 13:20:15;;;;;;;9.30;6.40;;;;;;;12.71;62.49;99705.27;215454;1277;141019;-69
2022/10/21 13:25:23;;;;;;;8.90;6.70;;;;;;;12.53;62.83;99703.80;215370;1278;139602;-71
2022/10/21 13:30:38;;;;;;;11.60;7.30;;;;;;;12.48;62.86;99694.94;215311;1278;138986;-72
2022/10/21 13:35:46;;;;;;;10.10;7.80;;;;;;;12.40;62.77;99680.23;215250;1278;139860;-72
2022/10/21 13:40:55;;;;;;;10.60;9.10;;;;;;;12.26;63.40;99688.54;215388;1278;140458;-71
2022/10/21 13:46:12;;;;;;;18.70;10.30;;;;;;;12.22;63.54;99705.27;215357;1277;140435;-71
2022/10/21 13:51:24;;;;;;;14.00;9.90;;;;;;;12.17;63.76;99711.45;215238;1277;140446;-69
2022/10/21 13:56:34;;;;;;;10.60;8.40;;;;;;;12.08;63.67;99713.89;215234;1277;139601;-73
2022/10/21 14:01:47;;;;;;;16.30;10.40;;;;;;;11.98;63.91;99708.77;215442;1278;139838;-72
2022/10/21 14:07:02;;;;;;;14.70;10.60;;;;;;;11.77;63.98;99705.17;212558;1277;140562;-73
2022/10/21 14:12:18;;;;;;;15.90;11.20;;;;;;;11.58;64.27;99703.73;214086;1278;141304;-72
2022/10/21 14:17:28;;;;;;;16.60;9.40;;;;;;;11.49;64.60;99707.59;213749;1278;140204;-72
2022/10/21 14:22:32;;;;;;;11.40;8.70;;;;;;;11.38;64.84;99705.88;215430;1277;141332;-73
2022/10/21 14:27:37;;;;;;;13.10;10.80;;;;;;;11.30;65.10;99713.54;215488;1277;140416;-74
2022/10/21 14:32:43;;;;;;;15.00;10.60;;;;;;;11.24;65.45;99707.36;215269;1277;140271;-73
2022/10/21 14:37:51;;;;;;;28.20;18.50;;;;;;;11.13;65.69;99692.80;215251;1278;140490;-73
2022/10/21 14:42:55;;;;;;;20.00;13.40;;;;;;;11.03;65.88;99675.29;213876;1278;141510;-70
2022/10/21 14:48:15;;;;;;;18.40;11.10;;;;;;;10.97;66.37;99691.02;215350;1277;140951;-72
2022/10/21 14:53:22;;;;;;;13.60;9.60;;;;;;;10.93;66.19;99679.91;215058;1278;140841;-72
2022/10/21 14:58:33;;;;;;;11.50;8.70;;;;;;;10.86;66.48;99678.16;215035;1278;141163;-72
2022/10/21 15:03:47;;;;;;;19.80;11.50;;;;;;;10.80;66.46;99687.77;215212;1279;139962;-73
2022/10/21 15:09:25;;;;;;;18.10;11.70;;;;;;;10.75;66.57;99685.03;215258;1278;140857;-71
2022/10/21 15:14:33;;;;;;;24.80;12.60;;;;;;;10.64;66.75;99674.42;215058;1277;141198;-73
2022/10/21 15:19:36;;;;;;;15.70;10.00;;;;;;;10.54;66.97;99691.43;215056;1278;140342;-72
2022/10/21 15:24:44;;;;;;;14.80;11.80;;;;;;;10.48;67.14;99693.50;215106;1278;140294;-71
2022/10/21 15:29:48;;;;;;;22.30;13.50;;;;;;;10.42;67.16;99688.52;215176;1278;141764;-72
2022/10/21 15:34:53;;;;;;;18.20;12.20;;;;;;;10.36;67.38;99683.21;215103;1277;140474;-72
2022/10/21 15:39:56;;;;;;;18.70;12.80;;;;;;;10.30;67.50;99678.70;215392;1277;140234;-72
2022/10/21 15:45:01;;;;;;;15.90;11.90;;;;;;;10.23;67.81;99680.55;215435;1277;142027;-72
2022/10/21 15:50:16;;;;;;;15.40;10.10;;;;;;;10.19;67.80;99686.55;213273;1277;141078;-72
2022/10/21 15:55:22;;;;;;;17.80;10.90;;;;;;;10.10;67.97;99682.59;213898;1277;141426;-72
2022/10/21 16:00:26;;;;;;;26.40;13.50;;;;;;;9.99;68.13;99677.67;214669;1277;139977;-71
2022/10/21 16:05:32;;;;;;;21.60;13.40;;;;;;;9.91;68.24;99674.17;213896;1277;139723;-71
2022/10/21 16:10:40;;;;;;;16.80;12.40;;;;;;;9.87;68.60;99670.89;213610;1277;140595;-72
2022/10/21 16:15:46;;;;;;;17.20;12.40;;;;;;;9.84;68.88;99670.16;214692;1277;139859;-72
2022/10/21 16:20:53;;;;;;;21.70;13.90;;;;;;;9.77;68.76;99670.88;213528;1277;140297;-71
2022/10/21 16:26:03;;;;;;;19.80;13.60;;;;;;;9.75;69.00;99668.35;215344;1277;139576;-72
2022/10/21 16:31:11;;;;;;;20.40;14.20;;;;;;;9.73;69.11;99670.63;215261;1277;139743;-72
2022/10/21 16:36:19;;;;;;;23.80;14.00;;;;;;;9.64;69.19;99672.95;212938;1278;140708;-71
2022/10/21 16:41:27;;;;;;;27.70;16.70;;;;;;;9.57;69.32;99664.95;213397;1277;140934;-72
2022/10/21 16:46:38;;;;;;;26.70;16.50;;;;;;;9.52;69.56;99665.41;214400;1278;290086;-72
2022/10/21 16:51:46;;;;;;;24.80;16.30;;;;;;;9.46;69.64;99656.02;215159;1277;139666;-72
2022/10/21 16:56:51;;;;;;;25.70;14.00;;;;;;;9.40;69.88;99656.48;215106;1278;141038;-72
2022/10/21 17:01:59;;;;;;;19.40;12.80;;;;;;;9.34;70.01;99651.65;215227;1277;140516;-71
2022/10/21 17:07:04;;;;;;;26.70;19.30;;;;;;;9.30;70.12;99647.66;215194;1277;141272;-72
2022/10/21 17:12:10;;;;;;;24.00;14.00;;;;;;;9.30;70.42;99647.05;215387;1277;142517;-71
2022/10/21 17:17:19;;;;;;;;;;;;;;;9.30;70.53;99649.19;215043;1277;141846;-71
2022/10/21 17:22:25;;;;;;;23.20;15.90;;;;;;;9.27;70.75;99640.39;215489;1280;127145;-72
2022/10/21 17:27:29;;;;;;;22.60;16.00;;;;;;;9.33;70.68;99641.23;214884;1279;143222;-72
2022/10/21 17:32:33;;;;;;;28.20;16.50;;;;;;;9.35;71.00;99638.25;215216;1277;141583;-72
2022/10/21 17:37:43;;;;;;;26.20;16.80;;;;;;;9.40;71.34;99632.70;215215;1277;140222;-72
2022/10/21 17:42:48;;;;;;;25.20;17.00;;;;;;;9.46;71.28;99631.51;215134;1277;141128;-72
2022/10/21 17:47:53;;;;;;;22.10;13.80;;;;;;;9.47;71.59;99625.08;214859;1277;140557;-71
2022/10/21 17:52:58;;;;;;;21.30;14.70;;;;;;;9.49;71.61;99616.45;214726;1277;141426;-72
2022/10/21 17:58:04;;;;;;;22.90;14.80;;;;;;;9.52;71.73;99605.96;214904;1277;141120;-71
2022/10/21 18:03:08;;;;;;;25.60;16.40;;;;;;;9.53;72.29;99599.88;214985;1277;141372;-71
2022/10/21 18:08:12;;;;;;;22.90;16.20;;;;;;;9.52;72.01;99590.65;212466;1277;162322;-72
2022/10/21 18:13:16;;;;;;;26.00;16.80;;;;;;;9.53;72.09;99578.55;213706;1277;233668;-72
2022/10/21 18:18:24;;;;;;;24.90;16.40;;;;;;;9.53;72.43;99577.16;213245;1277;142405;-71
2022/10/21 18:23:29;;;;;;;18.80;13.90;;;;;;;9.56;72.64;99568.07;214905;1281;140796;-73
2022/10/21 18:28:34;;;;;;;24.90;15.70;;;;;;;9.59;72.68;99561.49;215155;1277;141901;-72
2022/10/21 18:33:39;;;;;;;21.90;14.90;;;;;;;9.64;72.78;99559.11;213661;1277;141626;-72
2022/10/21 18:38:44;;;;;;;26.90;15.30;;;;;;;9.69;72.78;99550.32;215169;1277;142107;-74
2022/10/21 18:43:56;;;;;;;22.70;15.90;;;;;;;9.73;72.85;99541.20;215158;1277;141260;-71
2022/10/21 18:49:06;;;;;;;23.50;13.90;;;;;;;9.78;72.73;99536.73;214592;1277;165647;-70
2022/10/21 18:54:14;;;;;;;22.70;14.70;;;;;;;9.79;72.80;99532.59;214465;1277;140383;-71
2022/10/21 18:59:20;;;;;;;24.30;15.50;;;;;;;9.80;72.98;99533.25;215096;1277;143484;-72
2022/10/21 19:04:26;;;;;;;22.10;14.30;;;;;;;9.85;72.96;99537.06;215137;1277;142928;-71
2022/10/21 19:09:33;;;;;;;28.60;15.30;;;;;;;9.88;72.98;99542.53;215358;1277;142390;-72
2022/10/21 19:14:38;;;;;;;21.60;13.10;;;;;;;9.96;73.19;99544.71;215476;1277;141159;-71
2022/10/21 19:19:44;;;;;;;21.50;13.60;;;;;;;10.01;73.05;99548.40;215181;1279;142235;-71
2022/10/21 19:24:51;;;;;;;18.10;13.50;;;;;;;10.04;73.08;99550.33;215380;1277;141875;-72
2022/10/21 19:29:58;;;;;;;19.80;12.50;;;;;;;10.08;73.22;99558.60;215255;1277;142499;-72
2022/10/21 19:35:06;;;;;;;20.70;13.70;;;;;;;10.14;73.55;99563.61;215274;1277;151360;-72
2022/10/21 19:40:12;;;;;;;15.90;11.90;;;;;;;10.17;73.65;99570.91;215109;1277;139905;-72
2022/10/21 19:45:18;;;;;;;23.00;13.60;;;;;;;10.21;73.61;99575.91;215076;1278;141773;-73
2022/10/21 19:50:25;;;;;;;25.90;14.70;;;;;;;10.25;73.69;99580.21;214968;1277;140966;-69
2022/10/21 19:55:32;;;;;;;17.60;11.40;;;;;;;10.28;73.83;99591.85;215098;1277;139927;-73
2022/10/21 20:00:37;;;;;;;24.50;14.90;;;;;;;10.25;73.97;99601.90;214895;1277;140203;-67
2022/10/21 20:05:43;;;;;;;22.70;14.90;;;;;;;10.26;74.31;99608.52;215165;1277;140757;-72
2022/10/21 20:11:03;;;;;;;19.80;13.40;;;;;;;10.26;74.59;99612.54;213540;1277;140440;-69
2022/10/21 20:16:15;;;;;;;17.70;11.80;;;;;;;10.19;74.81;99614.54;214870;1279;140113;-70
2022/10/21 20:21:21;;;;;;;21.00;13.80;;;;;;;10.12;74.96;99612.64;215048;1277;140334;-70
2022/10/21 20:26:30;;;;;;;16.90;12.10;;;;;;;10.07;75.36;99616.11;215090;1278;141836;-74
2022/10/21 20:31:36;;;;;;;20.20;13.40;;;;;;;10.04;75.54;99614.87;214462;1277;140831;-70
2022/10/21 20:36:40;;;;;;;19.00;13.10;;;;;;;10.04;75.95;99612.79;213427;1277;140556;-75
2022/10/21 20:41:44;;;;;;;21.00;13.60;;;;;;;10.03;76.12;99618.36;215001;1277;142365;-74
2022/10/21 20:46:48;;;;;;;20.80;13.30;;;;;;;10.05;76.53;99616.94;215120;1277;142371;-73
2022/10/21 20:51:52;;;;;;;18.30;13.50;;;;;;;10.06;76.55;99614.17;214973;1277;142208;-73
2022/10/21 20:56:57;;;;;;;19.50;13.20;;;;;;;9.99;76.73;99603.90;214109;1280;140279;-73
2022/10/21 21:02:00;;;;;;;21.90;13.40;;;;;;;9.99;76.98;99599.15;214995;1277;140499;-72
2022/10/21 21:07:05;;;;;;;17.20;13.50;;;;;;;9.99;77.09;99599.69;215164;1277;141236;-75
2022/10/21 21:12:08;;;;;;;18.50;13.30;;;;;;;10.00;77.16;99599.50;215383;1277;151874;-74
2022/10/21 21:17:12;;;;;;;19.20;12.10;;;;;;;10.01;77.35;99607.09;215178;1278;151290;-74
2022/10/21 21:22:19;;;;;;;13.90;9.50;;;;;;;10.02;77.47;99610.57;215022;1277;140551;-71
2022/10/21 21:27:24;;;;;;;21.00;14.30;;;;;;;9.98;77.74;99612.07;215292;1277;140062;-73
2022/10/21 21:32:28;;;;;;;10.70;8.80;;;;;;;9.98;78.05;99615.54;215097;1279;141318;-78
2022/10/21 21:37:32;;;;;;;27.60;11.60;;;;;;;10.00;78.09;99609.56;214869;1278;140543;-72
2022/10/21 21:42:36;;;;;;;18.20;13.40;;;;;;;10.01;78.16;99608.63;215027;1277;141656;-74
2022/10/21 21:47:40;;;;;;;18.90;11.20;;;;;;;10.01;78.28;99605.66;215133;1277;141236;-68
2022/10/21 21:52:44;;;;;;;18.20;12.40;;;;;;;9.99;78.41;99603.79;215230;1277;140224;-71
2022/10/21 21:57:48;;;;;;;17.90;13.10;;;;;;;9.99;78.59;99598.98;215106;1277;141461;-80
2022/10/21 22:02:51;;;;;;;14.30;12.30;;;;;;;10.02;78.80;99599.34;215176;1277;140496;-75
2022/10/21 22:07:55;;;;;;;13.20;10.90;;;;;;;10.06;78.85;99597.13;215087;1277;141227;-72
2022/10/21 22:12:58;;;;;;;14.80;10.20;;;;;;;10.06;78.88;99591.23;215107;1277;140020;-73
2022/10/21 22:18:01;;;;;;;24.30;13.60;;;;;;;10.03;78.99;99581.98;214801;1277;151482;-67
2022/10/21 22:23:05;;;;;;;15.80;10.10;;;;;;;10.03;79.14;99570.97;215060;1278;141108;-73
2022/10/21 22:28:08;;;;;;;12.60;9.00;;;;;;;10.04;79.15;99569.55;215290;1277;141254;-71
2022/10/21 22:33:12;;;;;;;16.40;9.70;;;;;;;10.04;79.30;99568.21;213903;1277;139805;-66
2022/10/21 22:38:16;;;;;;;13.50;11.00;;;;;;;10.02;79.41;99563.16;214590;1277;139300;-66
2022/10/21 22:43:20;;;;;;;11.40;9.50;;;;;;;10.03;79.54;99560.10;215061;1277;140936;-70
2022/10/21 22:48:24;;;;;;;12.90;8.40;;;;;;;10.05;79.47;99552.63;213509;1278;140403;-71
2022/10/21 22:53:28;;;;;;;13.70;12.10;;;;;;;9.98;79.49;99543.16;213972;1277;140797;-66
2022/10/21 22:58:33;;;;;;;14.00;10.50;;;;;;;9.95;79.90;99544.80;215150;1277;140665;-72
2022/10/21 23:03:37;;;;;;;10.50;8.50;;;;;;;9.96;80.05;99547.17;215217;1277;140541;-73
2022/10/21 23:08:40;;;;;;;11.80;8.90;;;;;;;9.99;80.09;99549.77;215155;1277;140552;-72
2022/10/21 23:13:44;;;;;;;14.80;11.80;;;;;;;9.97;80.28;99546.38;215204;1277;139710;-71
2022/10/21 23:19:07;;;;;;;22.70;10.80;;;;;;;9.98;80.29;99542.09;215111;1277;140570;-72